Time;durP1;ratioP1;P1;durP2;ratioP2;P2;SDS_P1;SDS_P2;PMS_P1;PMS_P2;Temp;Humidity;BMP_temperature;BMP_pressure;BME280_temperature;BME280_humidity;BME280_pressure;Samples;Min_cycle;Max_cycle;Signal;HPM_P1;HPM_P2
2022/05/31 00:02:13;;;;;;;7.95;5.18;;;;;;;12.91;57.68;101291.78;5054456;28;20025;-61
2022/05/31 00:04:39;;;;;;;10.00;5.50;;;;;;;12.92;57.69;101290.88;5054668;28;20024;-61
2022/05/31 00:07:05;;;;;;;12.43;5.80;;;;;;;12.90;57.15;101285.59;5054452;28;20470;-61
2022/05/31 00:09:32;;;;;;;10.45;5.93;;;;;;;12.89;57.49;101293.50;5054628;28;20083;-60
2022/05/31 00:11:58;;;;;;;12.10;5.13;;;;;;;12.88;57.37;101283.78;5054443;28;20163;-60
2022/05/31 00:14:24;;;;;;;7.80;5.22;;;;;;;12.89;57.47;101285.53;5054273;28;20104;-60
2022/05/31 00:16:51;;;;;;;9.02;5.25;;;;;;;12.87;57.91;101279.34;5054164;28;20482;-60
2022/05/31 00:19:18;;;;;;;7.93;5.35;;;;;;;12.85;57.64;101283.75;5054014;28;20028;-61
2022/05/31 00:22:07;;;;;;;9.23;5.55;;;;;;;12.81;58.04;101277.56;5054197;28;20114;-60
2022/05/31 00:24:34;;;;;;;8.18;5.32;;;;;;;12.79;57.75;101276.63;5054011;28;20032;-60
2022/05/31 00:26:59;;;;;;;7.88;5.13;;;;;;;12.77;57.78;101278.41;5053940;28;20374;-60
2022/05/31 00:29:25;;;;;;;8.30;4.82;;;;;;;12.62;58.13;101273.84;5054253;28;20028;-60
2022/05/31 00:31:51;;;;;;;8.55;5.50;;;;;;;12.50;58.85;101271.97;5053884;28;20074;-61
2022/05/31 00:34:18;;;;;;;8.73;5.40;;;;;;;12.34;59.14;101285.94;5054124;28;20065;-60
2022/05/31 00:36:46;;;;;;;9.68;5.82;;;;;;;12.22;59.77;101273.44;5053888;28;20036;-60
2022/05/31 00:39:12;;;;;;;10.60;5.45;;;;;;;12.21;59.82;101279.63;5053780;28;20033;-60
2022/05/31 00:41:39;;;;;;;9.50;5.30;;;;;;;12.19;59.79;101286.66;5054151;28;20382;-60
2022/05/31 00:44:12;;;;;;;9.77;5.60;;;;;;;12.09;60.21;101282.13;5053843;28;20025;-60
2022/05/31 00:46:55;;;;;;;8.75;5.60;;;;;;;11.94;60.65;101280.16;5053820;28;20087;-61
2022/05/31 00:49:48;;;;;;;10.23;5.40;;;;;;;11.89;60.03;101281.88;5053687;28;20090;-60
2022/05/31 00:52:35;;;;;;;8.50;5.50;;;;;;;11.87;60.42;101283.63;4972721;28;20424;-60
2022/05/31 00:55:06;;;;;;;8.98;5.50;;;;;;;11.79;60.88;101277.31;4972767;28;20026;-61
2022/05/31 00:57:34;;;;;;;8.30;5.15;;;;;;;11.82;60.86;101293.25;4972807;28;20030;-61
2022/05/31 01:00:09;;;;;;;10.60;5.82;;;;;;;11.82;61.44;101282.66;4972833;28;20041;-60
2022/05/31 01:02:36;;;;;;;8.38;5.57;;;;;;;11.78;61.02;101284.38;4973179;28;20485;-60
2022/05/31 01:05:04;;;;;;;11.15;5.53;;;;;;;11.79;61.35;101286.16;4973098;28;20041;-60
2022/05/31 01:07:30;;;;;;;12.18;5.68;;;;;;;11.78;61.17;101280.84;4972453;28;20114;-60
2022/05/31 01:09:56;;;;;;;7.75;5.50;;;;;;;11.70;62.25;101279.84;4972571;28;20117;-60
2022/05/31 01:12:23;;;;;;;9.45;5.53;;;;;;;11.76;62.05;101277.25;4972613;28;20034;-60
2022/05/31 01:14:49;;;;;;;10.13;5.30;;;;;;;11.74;62.30;101279.91;4972577;28;20037;-60
2022/05/31 01:17:16;;;;;;;9.13;5.18;;;;;;;11.70;62.68;101286.03;4972585;28;20042;-60
2022/05/31 01:19:56;;;;;;;9.38;5.53;;;;;;;11.70;62.17;101285.16;4972473;28;20550;-60
2022/05/31 01:22:42;;;;;;;6.90;5.22;;;;;;;11.72;61.73;101273.69;4972389;28;20554;-60
2022/05/31 01:25:25;;;;;;;7.80;5.35;;;;;;;11.63;62.27;101273.56;4972211;28;20504;-60
2022/05/31 01:28:16;;;;;;;11.70;5.70;;;;;;;11.59;62.70;101271.75;4972327;28;20043;-60
2022/05/31 01:30:45;;;;;;;10.20;5.57;;;;;;;11.56;62.24;101273.47;5052884;28;20466;-60
2022/05/31 01:33:23;;;;;;;9.35;5.47;;;;;;;11.51;62.48;101270.75;5053066;28;20443;-61
2022/05/31 01:35:48;;;;;;;8.18;5.30;;;;;;;11.45;62.30;101273.34;5052988;28;20029;-60
2022/05/31 01:38:31;;;;;;;8.05;5.57;;;;;;;11.38;62.75;101267.03;5053066;28;20072;-60
2022/05/31 01:41:10;;;;;;;;;;;;;;;11.50;60.57;101271.63;5053361;28;20478;-61
2022/05/31 01:43:36;;;;;;;9.18;5.20;;;;;;;11.31;63.28;101262.56;5052775;28;19913;-60
2022/05/31 01:46:06;;;;;;;10.65;5.18;;;;;;;11.23;63.77;101270.38;5053155;28;20378;-60
2022/05/31 01:48:35;;;;;;;10.85;5.28;;;;;;;11.21;63.69;101272.09;5052799;28;20025;-60
2022/05/31 01:51:01;;;;;;;8.98;5.35;;;;;;;11.03;64.78;101267.41;5052854;28;20025;-60
2022/05/31 01:53:27;;;;;;;8.25;5.22;;;;;;;10.92;65.11;101276.03;5052982;28;20033;-60
2022/05/31 01:55:54;;;;;;;8.73;5.53;;;;;;;10.91;65.07;101264.56;5052728;28;20028;-60
2022/05/31 01:58:29;;;;;;;7.47;4.85;;;;;;;10.97;65.00;101275.25;5052769;28;20025;-60
2022/05/31 02:00:55;;;;;;;7.30;5.03;;;;;;;10.88;65.22;101268.94;5052764;28;20107;-60
2022/05/31 02:03:22;;;;;;;8.65;5.50;;;;;;;10.88;65.69;101266.31;5052771;28;20572;-60
2022/05/31 02:05:50;;;;;;;8.35;5.65;;;;;;;10.78;65.51;101266.13;5052748;28;20064;-60
2022/05/31 02:08:18;;;;;;;8.18;5.30;;;;;;;10.78;65.91;101262.59;5052583;28;20413;-61
2022/05/31 02:10:45;;;;;;;8.43;5.30;;;;;;;10.88;65.32;101263.66;5052628;28;20032;-60
2022/05/31 02:13:11;;;;;;;8.10;5.32;;;;;;;10.85;65.10;101253.91;5052680;28;20039;-60
2022/05/31 02:15:36;;;;;;;7.30;5.47;;;;;;;10.85;65.03;101264.50;5052862;28;20029;-60
2022/05/31 02:18:02;;;;;;;10.43;5.57;;;;;;;10.90;64.99;101259.28;5052683;28;20496;-60
2022/05/31 02:20:27;;;;;;;8.85;5.40;;;;;;;10.92;64.96;101261.09;5053590;28;20484;-60
2022/05/31 02:22:53;;;;;;;7.80;5.20;;;;;;;10.99;64.96;101255.00;5056607;28;20086;-61
2022/05/31 02:25:19;;;;;;;11.30;5.80;;;;;;;11.02;64.87;101257.72;5055968;28;20045;-60
2022/05/31 02:27:45;;;;;;;7.25;5.30;;;;;;;11.03;64.88;101253.31;5056238;28;20094;-60
2022/05/31 02:30:13;;;;;;;9.80;5.50;;;;;;;11.01;65.07;101261.22;5056282;28;20025;-60
2022/05/31 02:32:39;;;;;;;7.15;5.43;;;;;;;10.99;65.05;101251.47;5056408;28;20100;-60
2022/05/31 02:35:05;;;;;;;8.18;5.53;;;;;;;10.98;64.65;101247.94;5056250;28;20150;-60
2022/05/31 02:37:31;;;;;;;8.40;5.70;;;;;;;11.09;63.97;101253.41;5056066;28;20389;-60
2022/05/31 02:39:57;;;;;;;7.95;5.28;;;;;;;11.14;63.39;101249.09;5055993;28;20032;-61
2022/05/31 02:42:22;;;;;;;6.95;4.95;;;;;;;11.13;63.68;101242.00;5056108;28;20028;-60
2022/05/31 02:44:48;;;;;;;10.10;5.57;;;;;;;11.14;64.18;101256.13;5056052;28;20492;-60
2022/05/31 02:47:14;;;;;;;6.82;5.15;;;;;;;11.19;63.85;101244.75;5055930;28;20425;-60
2022/05/31 02:49:40;;;;;;;10.20;5.20;;;;;;;11.28;63.60;101246.63;5055996;28;20100;-60
2022/05/31 02:52:07;;;;;;;8.40;5.65;;;;;;;11.29;63.79;101248.41;5055845;28;20032;-60
2022/05/31 02:54:32;;;;;;;10.32;5.57;;;;;;;11.27;63.84;101245.75;5055783;28;20020;-61
2022/05/31 02:56:57;;;;;;;9.35;5.13;;;;;;;11.26;63.81;101237.75;5037855;28;20401;-60
2022/05/31 02:59:23;;;;;;;11.00;5.75;;;;;;;11.19;64.27;101236.81;5055732;28;20053;-60
2022/05/31 03:01:50;;;;;;;8.80;5.15;;;;;;;11.27;64.19;101244.84;5055565;28;20081;-60
2022/05/31 03:04:16;;;;;;;8.73;5.35;;;;;;;11.29;64.24;101244.00;5055600;28;20541;-60
2022/05/31 03:06:42;;;;;;;7.50;5.47;;;;;;;11.28;64.37;101243.97;5055542;28;20021;-60
2022/05/31 03:09:09;;;;;;;6.35;4.95;;;;;;;11.24;64.30;101240.41;5055784;28;20390;-61
2022/05/31 03:11:40;;;;;;;7.38;5.32;;;;;;;11.24;64.42;101247.44;5037612;28;20025;-60
2022/05/31 03:14:14;;;;;;;11.18;5.25;;;;;;;11.19;64.66;101238.56;5055587;28;20405;-60
2022/05/31 03:16:42;;;;;;;7.80;5.50;;;;;;;11.17;64.97;101242.94;5055442;28;20033;-60
2022/05/31 03:19:14;;;;;;;8.38;5.43;;;;;;;11.15;64.35;101242.03;5055395;28;20029;-60
2022/05/31 03:21:47;;;;;;;9.80;5.72;;;;;;;11.18;64.59;101240.31;5055326;28;20202;-60
2022/05/31 03:24:24;;;;;;;8.05;5.15;;;;;;;11.19;64.71;101238.56;5055085;28;20099;-60
2022/05/31 03:26:52;;;;;;;8.82;4.93;;;;;;;11.18;64.97;101237.69;5055204;28;20033;-60
2022/05/31 03:29:19;;;;;;;7.53;4.93;;;;;;;11.15;65.61;101234.09;5055259;28;20035;-60
2022/05/31 03:31:44;;;;;;;8.45;5.47;;;;;;;11.14;65.52;101235.84;5054120;28;20127;-60
2022/05/31 03:34:10;;;;;;;10.30;5.68;;;;;;;11.17;66.12;101241.16;5054935;28;20537;-60
2022/05/31 03:36:36;;;;;;;6.63;4.97;;;;;;;11.09;66.01;101229.63;5054919;28;20036;-60
2022/05/31 03:39:02;;;;;;;8.60;5.30;;;;;;;11.12;65.82;101229.63;5054777;28;20029;-60
2022/05/31 03:41:27;;;;;;;8.13;5.13;;;;;;;11.12;65.77;101234.94;5054494;28;20068;-60
2022/05/31 03:43:53;;;;;;;7.97;4.80;;;;;;;11.16;65.17;101227.94;5054633;28;20025;-60
2022/05/31 03:46:18;;;;;;;8.15;5.00;;;;;;;11.19;66.08;101230.63;5054443;28;20438;-60
2022/05/31 03:48:43;;;;;;;8.48;5.25;;;;;;;11.16;65.82;101228.81;5054445;28;20029;-60
2022/05/31 03:51:11;;;;;;;8.63;5.07;;;;;;;11.18;66.10;101231.50;5054280;28;20054;-60
2022/05/31 03:53:37;;;;;;;9.30;5.25;;;;;;;11.18;65.85;101234.16;5054217;28;20343;-60
2022/05/31 03:56:06;;;;;;;14.23;5.30;;;;;;;11.18;67.06;101231.50;5054333;28;20025;-60
2022/05/31 03:58:32;;;;;;;12.48;5.45;;;;;;;11.19;66.62;101223.59;5053894;28;20040;-60
2022/05/31 04:00:58;;;;;;;13.30;5.38;;;;;;;11.27;66.35;101235.16;5054001;28;20024;-60
2022/05/31 04:03:25;;;;;;;11.15;5.40;;;;;;;11.33;66.66;101233.47;5053931;28;20056;-60
2022/05/31 04:05:52;;;;;;;8.73;5.38;;;;;;;11.35;66.70;101237.94;5054057;28;20186;-60
2022/05/31 04:08:19;;;;;;;10.80;5.25;;;;;;;11.32;66.63;101232.59;5053676;28;20047;-60
2022/05/31 04:10:45;;;;;;;11.70;5.38;;;;;;;11.33;66.50;101233.47;5053836;28;20401;-60
2022/05/31 04:13:11;;;;;;;9.73;5.50;;;;;;;11.27;66.72;101221.94;5053958;28;20104;-60
2022/05/31 04:15:37;;;;;;;9.18;5.20;;;;;;;11.35;65.96;101230.00;5053907;28;20048;-60
2022/05/31 04:18:04;;;;;;;9.88;5.68;;;;;;;11.35;66.73;101229.06;5053739;28;20486;-60
2022/05/31 04:20:30;;;;;;;12.25;5.60;;;;;;;11.42;65.86;101230.94;5053563;28;20434;-61
2022/05/31 04:23:57;;;;;;;9.50;5.60;;;;;;;11.44;65.89;101229.22;5053565;28;20021;-61
2022/05/31 04:25:41;;;;;;;7.70;5.40;;;;;;;11.43;66.33;101227.41;5053244;28;20044;-60
2022/05/31 04:28:06;;;;;;;9.82;5.90;;;;;;;11.50;65.81;101221.34;5053557;28;20235;-61
2022/05/31 04:30:31;;;;;;;8.95;5.75;;;;;;;11.43;66.85;101227.41;5053379;28;20407;-61
2022/05/31 04:32:57;;;;;;;8.75;5.32;;;;;;;11.53;66.61;101227.56;5053435;28;20427;-60
2022/05/31 04:35:22;;;;;;;9.82;5.85;;;;;;;11.64;65.78;101237.41;5053240;28;20429;-60
2022/05/31 04:37:48;;;;;;;9.65;5.57;;;;;;;11.66;65.80;101235.69;5053536;28;20468;-60
2022/05/31 04:40:13;;;;;;;9.25;5.80;;;;;;;11.72;65.48;101230.44;5053399;28;20052;-60
2022/05/31 04:42:39;;;;;;;11.05;5.78;;;;;;;11.72;65.68;101227.78;5053069;28;20025;-60
2022/05/31 04:45:06;;;;;;;11.82;5.68;;;;;;;11.68;65.75;101229.50;5053072;28;20036;-60
2022/05/31 04:47:31;;;;;;;8.82;5.88;;;;;;;11.62;65.94;101231.22;5053018;28;20033;-60
2022/05/31 04:49:57;;;;;;;9.07;5.85;;;;;;;11.51;65.34;101226.66;5053024;28;20119;-60
2022/05/31 04:52:23;;;;;;;9.52;6.05;;;;;;;11.55;65.69;101224.94;5052892;28;20103;-60
2022/05/31 04:54:48;;;;;;;13.77;5.70;;;;;;;11.48;66.80;101223.97;5053021;28;20104;-60
2022/05/31 04:57:13;;;;;;;9.63;6.40;;;;;;;11.45;65.98;101228.34;5052979;28;20124;-60
2022/05/31 04:59:39;;;;;;;10.75;6.28;;;;;;;11.46;66.09;101232.75;5052983;28;20017;-60
2022/05/31 05:02:04;;;;;;;10.77;6.68;;;;;;;11.49;65.61;101219.56;5052863;28;20017;-60
2022/05/31 05:04:30;;;;;;;11.95;6.00;;;;;;;11.52;66.37;101222.28;5052710;28;20044;-60
2022/05/31 05:06:58;;;;;;;10.20;6.15;;;;;;;11.57;66.23;101219.69;5052573;28;20029;-60
2022/05/31 05:09:24;;;;;;;9.88;6.25;;;;;;;11.62;66.09;101217.97;5052868;28;20045;-60
2022/05/31 05:11:49;;;;;;;11.25;6.18;;;;;;;11.65;65.93;101213.63;5052814;28;20049;-60
2022/05/31 05:14:15;;;;;;;11.27;6.65;;;;;;;11.69;65.30;101217.16;5052743;28;20544;-60
2022/05/31 05:16:41;;;;;;;12.50;6.85;;;;;;;11.76;65.59;101213.72;5052722;28;20021;-61
2022/05/31 05:19:07;;;;;;;10.10;6.55;;;;;;;11.74;66.08;101215.47;5034732;28;20056;-60
2022/05/31 05:21:32;;;;;;;13.05;6.43;;;;;;;11.76;65.82;101208.44;5052373;28;20100;-61
2022/05/31 05:23:57;;;;;;;11.20;6.57;;;;;;;11.76;66.39;101211.09;5045468;28;20045;-60
2022/05/31 05:26:23;;;;;;;11.35;6.97;;;;;;;11.76;65.96;101205.78;5032650;28;20105;-60
2022/05/31 05:31:35;;;;;;;14.10;6.35;;;;;;;11.81;66.47;101213.78;5032468;28;20562;-60
2022/05/31 05:34:02;;;;;;;10.65;6.40;;;;;;;11.86;66.58;101212.09;5032442;28;20525;-61
2022/05/31 05:36:28;;;;;;;13.13;6.80;;;;;;;11.92;66.91;101215.72;5032121;28;20104;-60
2022/05/31 05:38:54;;;;;;;13.27;7.20;;;;;;;11.96;66.40;101212.22;5032458;28;20116;-60
2022/05/31 05:41:22;;;;;;;12.00;6.90;;;;;;;11.99;65.87;101212.28;5032359;28;20112;-60
2022/05/31 05:43:47;;;;;;;12.10;7.03;;;;;;;12.02;65.66;101211.41;5032694;28;20029;-60
2022/05/31 05:46:31;;;;;;;10.18;6.75;;;;;;;12.16;65.59;101207.16;5032394;28;20332;-60
2022/05/31 05:48:57;;;;;;;14.52;6.93;;;;;;;12.20;66.04;101210.69;5032171;28;20037;-60
2022/05/31 05:51:29;;;;;;;13.70;7.00;;;;;;;12.19;65.72;101211.56;5032283;28;20408;-60
2022/05/31 05:53:56;;;;;;;12.90;7.03;;;;;;;12.21;66.53;101204.56;5032392;28;20497;-60
2022/05/31 05:56:22;;;;;;;10.27;6.80;;;;;;;12.20;66.75;101211.59;5034993;28;20038;-60
2022/05/31 05:58:48;;;;;;;13.82;6.72;;;;;;;12.21;66.72;101205.44;5036426;28;20033;-60
2022/05/31 06:01:29;;;;;;;11.10;7.60;;;;;;;12.25;66.65;101211.66;5036414;28;20412;-60
2022/05/31 06:04:01;;;;;;;10.07;6.80;;;;;;;12.26;66.57;101213.44;5036155;28;20034;-60
2022/05/31 06:06:31;;;;;;;12.43;7.97;;;;;;;12.34;66.97;101213.50;5036288;28;20077;-60
2022/05/31 06:09:03;;;;;;;11.32;7.32;;;;;;;12.44;65.96;101218.00;5036126;28;20518;-60
2022/05/31 06:11:48;;;;;;;;;;;;;;;12.56;64.73;101215.47;5036632;28;20132;-60
2022/05/31 06:14:46;;;;;;;13.10;7.15;;;;;;;12.62;65.13;101219.91;5035271;28;19917;-60
2022/05/31 06:17:23;;;;;;;11.07;7.72;;;;;;;12.60;65.67;101216.38;4974957;28;20083;-60
2022/05/31 06:19:50;;;;;;;11.60;7.72;;;;;;;12.64;65.32;101212.88;4974982;28;20035;-60
2022/05/31 06:22:23;;;;;;;12.65;8.18;;;;;;;12.65;65.79;101218.19;4974970;28;20050;-60
2022/05/31 06:24:48;;;;;;;12.60;8.02;;;;;;;12.77;65.18;101214.75;4986468;28;20043;-60
2022/05/31 06:27:14;;;;;;;10.63;8.15;;;;;;;12.88;65.23;101207.75;4994155;28;20483;-60
2022/05/31 06:29:39;;;;;;;28.67;15.95;;;;;;;13.00;65.26;101209.59;4994349;28;20066;-61
2022/05/31 06:32:08;;;;;;;16.17;10.40;;;;;;;13.17;64.96;101209.72;4994296;28;20031;-60
2022/05/31 06:34:33;;;;;;;10.65;7.43;;;;;;;13.42;64.10;101214.31;4994205;28;20424;-60
2022/05/31 06:37:04;;;;;;;10.45;7.93;;;;;;;13.71;63.68;101213.56;4994044;28;20034;-60
2022/05/31 06:39:30;;;;;;;15.15;7.82;;;;;;;13.97;63.56;101213.66;4993990;28;20034;-60
2022/05/31 06:41:55;;;;;;;9.80;7.93;;;;;;;14.21;60.81;101216.31;4993673;28;20034;-60
2022/05/31 06:44:21;;;;;;;12.95;8.70;;;;;;;14.36;60.93;101212.81;4994276;28;20508;-60
2022/05/31 06:49:33;;;;;;;11.18;7.68;;;;;;;14.51;60.38;101219.94;4955993;29;20043;-60
2022/05/31 06:57:32;;;;;;;10.82;7.13;;;;;;;14.70;57.31;101224.41;4994231;28;20498;-60
2022/05/31 06:59:58;;;;;;;11.85;7.20;;;;;;;14.57;58.32;101219.97;4993881;28;20057;-60
2022/05/31 07:02:25;;;;;;;10.63;7.25;;;;;;;14.59;58.90;101217.28;4993605;28;20026;-60
2022/05/31 07:04:50;;;;;;;12.15;6.82;;;;;;;14.61;59.12;101210.22;4993840;28;20049;-60
2022/05/31 07:07:15;;;;;;;11.10;6.75;;;;;;;14.70;58.97;101213.75;4993391;28;20124;-60
2022/05/31 07:09:41;;;;;;;9.65;5.72;;;;;;;14.93;57.56;101219.06;4993732;28;20476;-60
2022/05/31 07:12:07;;;;;;;12.10;6.15;;;;;;;15.27;56.20;101213.66;4993761;28;20109;-60
2022/05/31 07:14:33;;;;;;;10.90;5.57;;;;;;;15.61;54.79;101210.91;4993678;28;20137;-60
2022/05/31 07:16:58;;;;;;;6.80;4.93;;;;;;;15.72;53.36;101211.78;4993863;28;20073;-62
2022/05/31 07:19:24;;;;;;;8.90;4.97;;;;;;;15.87;52.66;101214.34;4993423;28;20121;-61
2022/05/31 07:21:50;;;;;;;6.97;4.75;;;;;;;15.96;50.46;101205.41;4993571;28;20049;-61
2022/05/31 07:24:16;;;;;;;8.07;5.10;;;;;;;16.10;51.53;101208.91;4993177;28;20554;-61
2022/05/31 07:26:41;;;;;;;7.68;5.30;;;;;;;16.30;50.53;101206.09;5025995;28;20113;-61
2022/05/31 07:29:09;;;;;;;11.57;5.40;;;;;;;16.42;50.06;101197.13;5054821;28;20463;-61
2022/05/31 07:31:35;;;;;;;9.70;5.45;;;;;;;16.51;52.05;101203.25;5054706;28;20382;-61
2022/05/31 07:34:02;;;;;;;9.45;4.82;;;;;;;16.65;50.45;101207.59;5054581;28;20036;-61
2022/05/31 07:36:27;;;;;;;8.00;5.10;;;;;;;16.67;49.62;101209.38;5054841;28;20048;-61
2022/05/31 07:38:54;;;;;;;10.50;5.25;;;;;;;16.68;50.03;101204.91;5054564;28;20470;-61
2022/05/31 07:41:19;;;;;;;10.27;5.22;;;;;;;16.62;49.86;101202.31;5054607;28;20032;-61
2022/05/31 07:43:44;;;;;;;9.40;5.15;;;;;;;16.66;49.57;101206.69;5054956;28;20025;-61
2022/05/31 07:46:13;;;;;;;9.35;4.88;;;;;;;16.74;50.98;101200.47;5054401;28;20033;-61
2022/05/31 07:48:39;;;;;;;8.00;5.20;;;;;;;16.80;49.60;101195.97;5054419;28;20036;-61
2022/05/31 07:51:06;;;;;;;10.05;5.20;;;;;;;17.00;48.98;101204.63;5054307;28;20036;-61
2022/05/31 07:53:32;;;;;;;8.48;4.93;;;;;;;17.26;47.51;101199.94;5054397;28;20029;-61
2022/05/31 07:56:07;;;;;;;7.63;5.00;;;;;;;17.46;47.07;101190.78;5054161;28;20061;-61
2022/05/31 07:58:38;;;;;;;9.43;4.97;;;;;;;17.81;46.99;101192.16;5054366;28;20037;-61
2022/05/31 08:01:07;;;;;;;8.75;4.97;;;;;;;17.91;47.05;101196.47;5054083;28;20028;-61
2022/05/31 08:03:34;;;;;;;9.23;5.40;;;;;;;18.07;46.06;101189.09;5054176;28;20033;-61
2022/05/31 08:06:06;;;;;;;10.80;5.35;;;;;;;18.21;47.88;101193.38;5054077;28;20485;-61
2022/05/31 08:08:32;;;;;;;9.00;5.28;;;;;;;18.42;47.03;101185.91;5036111;28;20462;-61
2022/05/31 08:11:02;;;;;;;8.60;5.22;;;;;;;18.51;45.88;101185.75;5054070;28;20029;-61
2022/05/31 08:13:27;;;;;;;8.15;5.43;;;;;;;18.56;45.78;101180.31;5053890;28;20036;-61
2022/05/31 08:16:00;;;;;;;8.23;5.28;;;;;;;18.50;46.62;101184.00;5053827;28;20021;-61
2022/05/31 08:18:26;;;;;;;9.25;5.30;;;;;;;18.62;46.89;101181.09;5053242;28;20033;-61
2022/05/31 08:20:58;;;;;;;8.45;5.40;;;;;;;18.86;46.36;101187.84;5053739;28;20054;-59
2022/05/31 08:23:24;;;;;;;12.63;5.40;;;;;;;19.13;45.34;101180.22;5035436;28;20025;-59
2022/05/31 08:25:49;;;;;;;10.63;4.72;;;;;;;19.39;43.10;101168.97;5053107;28;20052;-59
2022/05/31 08:28:14;;;;;;;7.40;4.80;;;;;;;19.43;42.08;101168.88;5053263;28;20390;-59
2022/05/31 08:30:40;;;;;;;7.70;4.72;;;;;;;19.52;43.70;101166.00;5053229;28;20493;-59
2022/05/31 08:33:06;;;;;;;9.80;4.88;;;;;;;19.65;43.65;101166.66;5053476;28;20394;-59
2022/05/31 08:35:31;;;;;;;9.60;6.97;;;;;;;19.93;44.45;101163.38;5053392;28;20043;-60
2022/05/31 08:37:57;;;;;;;7.68;4.88;;;;;;;20.08;40.54;101162.13;5053424;28;20475;-60
2022/05/31 08:40:23;;;;;;;7.63;4.68;;;;;;;20.30;41.42;101167.88;5053272;28;20063;-60
2022/05/31 08:42:52;;;;;;;6.97;4.60;;;;;;;20.43;42.72;101164.88;5053232;28;20039;-60
2022/05/31 08:45:47;;;;;;;8.63;4.80;;;;;;;20.52;41.30;101160.22;5053211;28;20197;-60
2022/05/31 08:48:24;;;;;;;7.47;4.50;;;;;;;20.43;40.32;101167.53;4972237;28;20039;-60
2022/05/31 08:56:56;;;;;;;8.70;4.95;;;;;;;20.48;40.70;101167.47;4972395;28;20065;-60
2022/05/31 08:59:41;;;;;;;8.60;4.80;;;;;;;20.16;41.66;101170.88;4972637;28;20126;-60
2022/05/31 09:02:23;;;;;;;10.50;4.70;;;;;;;19.90;41.58;101172.38;4972085;28;20062;-60
2022/05/31 09:05:02;;;;;;;8.82;5.18;;;;;;;20.01;42.01;101164.97;4972121;28;20034;-60
2022/05/31 09:07:46;;;;;;;9.90;5.07;;;;;;;20.70;40.88;101165.09;4972078;28;20042;-60
2022/05/31 09:10:40;;;;;;;7.05;5.00;;;;;;;21.14;40.69;101163.91;4972044;28;20031;-60
2022/05/31 09:13:34;;;;;;;7.50;4.88;;;;;;;21.44;40.24;101155.91;4968126;28;20038;-60
2022/05/31 09:16:09;;;;;;;7.40;5.18;;;;;;;21.64;38.25;101155.34;4971817;28;20046;-60
2022/05/31 09:18:44;;;;;;;7.80;5.00;;;;;;;21.44;38.28;101164.88;4971907;28;20497;-60
2022/05/31 09:21:23;;;;;;;8.20;5.20;;;;;;;21.02;38.12;101167.78;4971744;28;20044;-61
2022/05/31 09:23:48;;;;;;;6.82;4.72;;;;;;;20.45;38.07;101168.38;4971851;28;20463;-60
2022/05/31 09:26:28;;;;;;;7.78;4.78;;;;;;;20.31;39.06;101173.22;5049401;28;20049;-60
2022/05/31 09:29:12;;;;;;;7.07;4.43;;;;;;;20.18;38.86;101177.13;5052403;28;20033;-60
2022/05/31 09:31:53;;;;;;;8.65;3.97;;;;;;;20.44;38.47;101161.25;5052367;28;20037;-60
2022/05/31 09:35:01;;;;;;;8.00;4.22;;;;;;;20.96;39.03;101161.72;5052584;28;20056;-60
2022/05/31 09:37:44;;;;;;;6.03;4.25;;;;;;;21.21;37.82;101164.63;5052485;28;20107;-60
2022/05/31 09:40:47;;;;;;;7.72;4.55;;;;;;;21.62;37.41;101162.56;5052324;28;20029;-61
2022/05/31 09:43:30;;;;;;;8.60;4.68;;;;;;;21.83;36.68;101151.16;5052653;28;20425;-60
2022/05/31 09:46:14;;;;;;;7.95;4.90;;;;;;;22.07;37.79;101165.66;5052496;28;20028;-61
2022/05/31 09:48:48;;;;;;;6.70;4.90;;;;;;;22.14;35.68;101158.28;5052651;28;20378;-60
2022/05/31 09:51:37;;;;;;;6.35;4.88;;;;;;;22.39;36.02;101166.44;5053212;28;20033;-62
2022/05/31 09:57:05;;;;;;;8.32;4.95;;;;;;;22.35;34.49;101164.78;5052691;28;20043;-62
2022/05/31 09:59:33;;;;;;;9.07;4.90;;;;;;;22.54;34.93;101157.84;5053697;28;20124;-61
2022/05/31 10:02:19;;;;;;;7.53;5.00;;;;;;;22.88;36.04;101157.56;5053180;28;20162;-61
2022/05/31 10:04:48;;;;;;;9.90;4.90;;;;;;;22.68;34.18;101157.38;5052589;28;20036;-61
2022/05/31 10:07:30;;;;;;;7.65;4.63;;;;;;;22.80;34.03;101154.25;5052003;28;20022;-59
2022/05/31 10:10:01;;;;;;;7.38;4.78;;;;;;;22.77;35.28;101148.09;5052030;28;20104;-59
2022/05/31 10:12:31;;;;;;;9.80;4.63;;;;;;;23.03;33.38;101147.19;5051929;28;20021;-59
2022/05/31 10:14:58;;;;;;;10.35;4.60;;;;;;;22.86;34.40;101150.47;5051854;28;20032;-59
2022/05/31 10:17:44;;;;;;;8.07;5.28;;;;;;;22.48;35.75;101152.66;5051963;28;20033;-60
2022/05/31 10:20:32;;;;;;;8.00;4.85;;;;;;;22.80;35.87;101150.69;5051967;28;20033;-59
2022/05/31 10:23:10;;;;;;;8.48;5.45;;;;;;;22.62;34.48;101152.22;5051429;28;20486;-58
2022/05/31 10:25:40;;;;;;;7.80;5.22;;;;;;;22.81;35.79;101144.38;5051812;28;20041;-59
2022/05/31 10:28:12;;;;;;;7.60;4.72;;;;;;;23.47;35.40;101140.19;5051870;28;20029;-59
2022/05/31 10:30:39;;;;;;;8.43;5.30;;;;;;;23.66;32.79;101140.38;5051786;28;20032;-59
2022/05/31 10:33:20;;;;;;;10.07;5.32;;;;;;;23.81;34.12;101129.00;5052046;28;20033;-59
2022/05/31 10:35:46;;;;;;;10.38;5.07;;;;;;;23.81;33.50;101139.78;5051945;28;20087;-59
2022/05/31 10:38:17;;;;;;;10.38;5.07;;;;;;;23.37;33.63;101146.84;5051866;28;20067;-59
2022/05/31 10:40:50;;;;;;;8.30;4.90;;;;;;;22.80;34.09;101148.88;5051413;28;20025;-60
2022/05/31 10:43:34;;;;;;;11.68;5.25;;;;;;;22.37;34.83;101141.38;5055688;28;20066;-59
2022/05/31 10:46:04;;;;;;;7.68;5.70;;;;;;;22.04;35.56;101132.56;5055304;28;20098;-59
2022/05/31 10:48:30;;;;;;;10.20;5.38;;;;;;;21.88;35.82;101137.53;5055511;28;20124;-59
2022/05/31 10:51:21;;;;;;;8.32;5.22;;;;;;;21.77;37.03;101137.91;5055288;28;20104;-59
2022/05/31 10:53:52;;;;;;;9.43;4.90;;;;;;;21.54;38.00;101135.00;5055409;28;20119;-59
2022/05/31 10:56:32;;;;;;;10.77;5.50;;;;;;;21.35;36.95;101132.88;5055139;28;20444;-59
2022/05/31 10:59:00;;;;;;;8.27;4.93;;;;;;;21.43;37.96;101130.84;5055298;28;20530;-60
2022/05/31 11:01:50;;;;;;;6.43;5.18;;;;;;;21.44;37.19;101129.03;5055233;28;20025;-59
2022/05/31 11:04:22;;;;;;;7.53;5.53;;;;;;;21.29;36.88;101133.03;5055103;28;20017;-59
2022/05/31 11:07:21;;;;;;;9.52;5.85;;;;;;;21.22;37.61;101126.94;5055088;28;20082;-59
2022/05/31 11:13:25;;;;;;;7.78;5.63;;;;;;;21.04;37.53;101145.41;5054817;28;20079;-59
2022/05/31 11:15:57;;;;;;;8.60;5.55;;;;;;;20.84;37.95;101140.56;5055241;28;20417;-60
2022/05/31 11:19:01;;;;;;;7.38;5.32;;;;;;;20.85;37.91;101140.50;5054716;28;20128;-59
2022/05/31 11:21:37;;;;;;;8.60;5.68;;;;;;;20.71;37.81;101145.38;5055065;28;20068;-59
2022/05/31 11:24:18;;;;;;;11.38;6.10;;;;;;;20.48;38.08;101149.56;5054629;28;20386;-59
2022/05/31 11:26:52;;;;;;;7.18;5.80;;;;;;;20.35;38.20;101149.88;5054574;28;20055;-59
2022/05/31 11:29:42;;;;;;;10.07;5.68;;;;;;;20.27;38.65;101147.38;5054420;28;20221;-61
2022/05/31 11:32:22;;;;;;;9.05;5.57;;;;;;;20.06;40.67;101150.56;5054823;28;20036;-59
2022/05/31 11:35:03;;;;;;;7.38;5.47;;;;;;;19.90;40.43;101158.06;5054389;28;20031;-59
2022/05/31 11:37:43;;;;;;;8.48;5.65;;;;;;;19.63;43.52;101165.81;5054426;28;20033;-60
2022/05/31 11:40:35;;;;;;;7.82;5.30;;;;;;;19.29;43.64;101162.06;5054351;28;20056;-59
2022/05/31 11:43:29;;;;;;;8.75;5.28;;;;;;;19.08;44.19;101160.69;5054413;28;20490;-61
2022/05/31 11:46:06;;;;;;;5.32;3.75;;;;;;;18.89;39.06;101165.50;5054337;28;20427;-62
2022/05/31 11:49:13;;;;;;;7.22;3.90;;;;;;;18.66;40.37;101164.06;5054299;28;20025;-62
2022/05/31 11:51:45;;;;;;;6.82;4.22;;;;;;;18.55;42.22;101163.38;5053871;28;20055;-62
2022/05/31 11:54:35;;;;;;;7.63;4.45;;;;;;;18.54;42.47;101158.91;5052998;28;20477;-62
2022/05/31 11:57:36;;;;;;;5.90;3.83;;;;;;;18.53;41.45;101158.03;5054096;28;20032;-59
2022/05/31 12:00:15;;;;;;;8.02;3.65;;;;;;;18.72;40.46;101160.47;5054069;28;20040;-59
2022/05/31 12:02:54;;;;;;;7.43;3.40;;;;;;;18.85;39.68;101151.28;5035695;28;20040;-60
2022/05/31 12:05:43;;;;;;;6.97;2.90;;;;;;;19.07;39.15;101150.88;5053852;28;20033;-59